Latest Weather Observations for Omeo

IDV60801

Issued at 12:52 pm EST Thursday 18 July 2019 (issued every 10 minutes, with the page automatically refreshed every 10 minutes)

About weather observations | Map of weather stations | Latest weather observations for VIC | Other Formats
Station Details ID: 083090 Name: OMEO Lat: -37.10 Lon: 147.60 Height: 689.8 m
Data from the previous 72 hours. | See also: Recent months at Omeo
Date/Time
EST
Temp
°C
App
Temp
°C
Dew
Point
°C
Rel
Hum
%
Delta-T
°C
Wind Press
QNH
hPa
Press
MSL
hPa
Rain since
9am
mm
Dir  Spd
km/h
Gust
km/h
Spd
kts
Gust
kts
18/12:30pm 8.9 3.7 2.7 65 2.7 N 19 26 10 14 1015.6 1016.7 0.2
18/12:00pm 8.5 3.3 2.7 67 2.6 N 19 28 10 15 1016.0 1017.2 0.2
18/11:30am 7.9 2.9 3.4 73 2.0 N 19 24 10 13 1016.6 1017.7 0.2
18/11:00am 7.4 3.1 3.5 76 1.7 N 15 19 8 10 1016.9 1018.0 0.2
18/10:30am 6.4 2.1 3.4 81 1.3 N 15 19 8 10 1017.4 1018.6 0.2
18/10:00am 5.4 1.7 2.1 79 1.4 N 11 15 6 8 1017.4 1018.6 0.2
18/09:30am 3.9 0.4 1.4 84 1.0 NNW 9 11 5 6 1017.4 1018.6 0.2
18/09:00am 2.4 -0.6 1.1 91 0.5 WNW 6 9 3 5 1016.7 1017.8 0.0
18/08:30am 0.6 -2.6 0.5 99 0.0 NW 7 11 4 6 1016.8 1017.9 0.0
18/08:00am 0.1 -3.0 0.0 99 0.0 NNW 6 11 3 6 1016.3 1017.5 0.0
18/07:30am -0.2 -2.2 -0.3 99 0.0 CALM 0 0 0 0 1016.0 1017.2 0.0
18/07:00am 0.3 -2.4 0.2 99 0.0 WNW 4 6 2 3 1015.7 1016.8 0.0
18/06:30am 0.3 -2.4 0.2 99 0.0 NW 4 9 2 5 1015.3 1016.4 0.0
18/06:00am 0.7 -2.5 0.6 99 0.0 NNW 7 13 4 7 1014.6 1015.7 0.0
18/05:30am 0.8 -2.8 0.7 99 0.0 N 9 13 5 7 1014.4 1015.5 0.0
18/05:00am 1.3 -1.7 1.0 98 0.1 NW 6 9 3 5 1014.0 1015.1 0.0
18/04:30am 2.1 -0.7 2.0 99 0.0 N 6 9 3 5 1013.8 1014.9 0.0
18/04:00am 1.7 -0.8 1.6 99 0.0 ENE 4 9 2 5 1014.0 1015.1 0.0
18/03:30am 1.8 -2.0 1.5 98 0.1 NNW 11 17 6 9 1013.6 1014.7 0.0
18/03:00am 2.2 -1.6 1.8 97 0.2 N 11 13 6 7 1013.6 1014.7 0.0
18/02:30am 2.2 -0.3 1.6 96 0.2 ENE 4 7 2 4 1013.8 1014.9 0.0
18/02:00am 3.3 0.0 2.7 96 0.3 NNW 9 13 5 7 1013.7 1014.8 0.0
18/01:30am 3.5 -0.1 2.9 96 0.3 NNW 11 15 6 8 1013.5 1014.5 0.0
18/01:00am 3.7 0.5 3.1 96 0.3 NNW 9 11 5 6 1013.1 1014.2 0.0
18/12:30am 4.4 0.2 3.7 95 0.3 NNW 15 19 8 10 1013.2 1014.3 0.0
18/12:00am 4.2 0.7 3.6 96 0.3 NNW 11 15 6 8 1013.1 1014.2 0.0
 
Date/Time
EST
Temp
°C
App
Temp
°C
Dew
Point
°C
Rel
Hum
%
Delta-T
°C
Wind Press
QNH
hPa
Press
MSL
hPa
Rain since
9am
mm
Dir  Spd
km/h
Gust
km/h
Spd
kts
Gust
kts
17/11:30pm 4.3 0.8 3.4 94 0.4 NNW 11 15 6 8 1013.1 1014.2 0.0
17/11:00pm 5.1 1.0 4.2 94 0.4 N 15 19 8 10 1013.5 1014.5 0.0
17/10:30pm 5.3 0.8 4.1 92 0.5 N 17 24 9 13 1013.0 1014.1 0.0
17/10:00pm 4.9 0.7 3.9 93 0.4 NNW 15 19 8 10 1013.0 1014.1 0.0
17/09:30pm 5.2 1.7 3.7 90 0.7 N 11 15 6 8 1013.3 1014.4 0.0
17/09:00pm 5.7 2.7 3.9 88 0.8 N 9 13 5 7 1013.2 1014.3 0.0
17/08:30pm 5.8 1.6 3.8 87 0.9 NNW 15 24 8 13 1012.9 1014.0 0.0
17/08:00pm 6.2 3.1 3.7 84 1.1 N 9 15 5 8 1013.0 1014.1 0.0
17/07:30pm 6.0 1.4 3.8 86 1.0 N 17 22 9 12 1012.4 1013.5 0.0
17/07:00pm 5.9 3.4 3.9 87 0.9 NNE 6 9 3 5 1012.7 1013.8 0.0
17/06:30pm 5.3 1.5 3.8 90 0.7 NNW 13 17 7 9 1012.2 1013.2 0.0
17/06:00pm 5.5 1.7 4.0 90 0.7 NNW 13 20 7 11 1012.0 1013.0 0.0
17/05:30pm 5.6 1.5 4.2 91 0.6 N 15 22 8 12 1012.0 1013.0 0.0
17/05:00pm 5.8 1.7 4.3 90 0.7 N 15 24 8 13 1012.1 1013.1 0.0
17/04:30pm 6.7 1.6 3.9 82 1.2 NNW 20 32 11 17 1012.2 1013.2 0.0
17/04:00pm 6.5 1.6 4.3 86 1.0 NNW 19 28 10 15 1012.3 1013.3 0.0
17/03:30pm 6.5 1.6 4.2 85 1.0 N 19 32 10 17 1012.4 1013.5 0.0
17/03:00pm 7.1 0.8 3.7 79 1.5 N 26 37 14 20 1012.4 1013.5 0.0
17/02:30pm 7.8 2.1 3.1 72 2.1 N 22 33 12 18 1012.6 1013.7 0.0
17/02:00pm 7.8 1.7 2.9 71 2.2 N 24 32 13 17 1012.6 1013.7 0.0
17/01:30pm 7.7 2.0 2.8 71 2.1 N 22 32 12 17 1012.9 1014.0 0.0
17/01:00pm 7.7 2.2 1.8 66 2.5 N 20 32 11 17 1013.1 1014.2 0.0
17/12:30pm 7.9 1.4 0.6 60 3.0 N 24 37 13 20 1013.6 1014.7 0.0
17/12:00pm 8.1 1.2 0.3 58 3.2 N 26 39 14 21 1014.6 1015.7 0.0
17/11:30am 7.8 1.8 1.2 63 2.8 N 22 35 12 19 1015.7 1016.8 0.0
17/11:00am 8.5 3.2 2.1 64 2.8 N 19 33 10 18 1016.3 1017.5 0.0
17/10:30am 7.3 1.2 0.7 63 2.7 N 22 35 12 19 1016.0 1017.2 0.0
17/10:00am 7.0 0.6 0.9 65 2.5 N 24 35 13 19 1016.7 1017.8 0.0
17/09:30am 6.6 0.7 1.5 70 2.1 N 22 35 12 19 1016.6 1017.7 0.0
17/09:00am 6.5 1.3 2.2 74 1.8 N 19 32 10 17 1016.8 1017.9 0.2
17/08:30am 4.5 0.0 2.2 85 1.0 N 15 20 8 11 1016.9 1018.0 0.2
17/08:00am 2.7 -0.7 1.7 93 0.4 NNW 9 13 5 7 1017.0 1018.1 0.2
17/07:30am 2.6 -1.2 2.0 96 0.2 N 11 17 6 9 1017.1 1018.2 0.2
17/07:00am 1.2 -2.3 1.1 99 0.0 NNW 9 15 5 8 1017.4 1018.6 0.2
17/06:30am 1.6 -2.6 1.5 99 0.0 NNW 13 17 7 9 1017.1 1018.2 0.2
17/06:00am 1.3 -3.4 1.2 99 0.0 NNW 15 20 8 11 1017.2 1018.4 0.2
17/05:30am 1.3 -3.7 1.2 99 0.0 NNW 17 20 9 11 1017.0 1018.1 0.2
17/05:00am 1.6 -2.2 1.5 99 0.0 NNW 11 15 6 8 1017.1 1018.2 0.2
17/04:30am 2.6 -1.5 2.3 98 0.1 N 13 17 7 9 1017.3 1018.5 0.2
17/04:00am 2.6 -1.1 2.3 98 0.1 N 11 13 6 7 1017.5 1018.7 0.2
17/03:30am 2.5 -2.0 2.4 99 0.0 N 15 20 8 11 1017.8 1019.0 0.0
17/03:00am 2.8 -1.2 2.7 99 0.0 N 13 20 7 11 1018.1 1019.2 0.0
17/02:30am 2.8 -2.0 2.7 99 0.0 N 17 20 9 11 1018.3 1019.4 0.0
17/02:00am 3.0 -1.0 2.9 99 0.0 N 13 19 7 10 1018.5 1019.7 0.0
17/01:30am 3.1 -1.2 3.0 99 0.0 N 15 19 8 10 1018.6 1019.8 0.0
17/01:00am 3.4 -0.5 3.3 99 0.0 N 13 17 7 9 1018.9 1020.1 0.0
17/12:30am 3.3 -0.6 3.2 99 0.0 N 13 17 7 9 1019.1 1020.3 0.0
17/12:00am 3.8 -0.5 3.4 97 0.2 N 15 20 8 11 1019.3 1020.5 0.0
 
Date/Time
EST
Temp
°C
App
Temp
°C
Dew
Point
°C
Rel
Hum
%
Delta-T
°C
Wind Press
QNH
hPa
Press
MSL
hPa
Rain since
9am
mm
Dir  Spd
km/h
Gust
km/h
Spd
kts
Gust
kts
16/11:30pm 4.2 0.4 3.8 97 0.2 N 13 20 7 11 1019.7 1020.9 0.0
16/11:00pm 4.3 0.4 3.6 95 0.3 N 13 17 7 9 1019.8 1021.0 0.0
16/10:30pm 4.1 0.5 3.2 94 0.4 N 11 17 6 9 1019.9 1021.1 0.0
16/10:00pm 4.4 0.9 3.4 93 0.4 N 11 15 6 8 1020.0 1021.2 0.0
16/09:30pm 4.9 1.7 2.8 86 0.9 N 9 13 5 7 1020.1 1021.3 0.0
16/09:00pm 5.1 3.6 2.8 85 1.0 CALM 0 9 0 5 1020.3 1021.5 0.0
16/08:30pm 5.5 2.6 2.7 82 1.2 N 7 11 4 6 1020.2 1021.4 0.0
16/08:00pm 7.2 4.4 2.3 71 2.1 WNW 6 9 3 5 1020.1 1021.3 0.0
16/07:30pm 7.9 5.5 2.4 68 2.4 NNW 4 7 2 4 1020.1 1021.3 0.0
16/07:00pm 8.6 7.0 2.4 65 2.7 CALM 0 6 0 3 1020.0 1021.2 0.0
16/06:30pm 9.4 6.1 2.5 62 3.0 WNW 9 17 5 9 1019.7 1020.9 0.0
16/06:00pm 9.7 6.8 2.6 61 3.1 W 7 13 4 7 1019.4 1020.6 0.0
16/05:30pm 9.8 7.1 2.6 61 3.2 W 6 13 3 7 1019.2 1020.4 0.0
16/05:00pm 10.4 7.1 2.7 59 3.4 W 9 19 5 10 1019.0 1020.2 0.0
16/04:30pm 11.1 7.5 2.7 56 3.8 W 11 22 6 12 1018.7 1019.9 0.0
16/04:00pm 11.3 6.9 2.9 56 3.8 WNW 15 26 8 14 1018.8 1020.0 0.0
16/03:30pm 11.3 7.3 3.1 57 3.7 SW 13 30 7 16 1018.9 1020.1 0.0
16/03:00pm 11.7 8.9 3.0 55 4.0 SW 7 11 4 6 1018.8 1020.0 0.0
16/02:30pm 11.7 8.5 3.0 55 4.0 SW 9 22 5 12 1018.7 1019.9 0.0
16/02:00pm 11.0 8.8 3.3 59 3.5 NE 4 9 2 5 1018.8 1020.0 0.0
16/01:30pm 10.7 8.4 4.6 66 2.9 NNW 6 7 3 4 1019.0 1020.2 0.0
16/01:00pm 10.4 7.8 4.3 66 2.8 N 7 9 4 5 1019.0 1020.2 0.0
16/12:30pm 10.2 7.7 4.6 68 2.6 NNW 7 11 4 6 1019.3 1020.5 0.0
16/12:00pm 9.6 6.0 4.8 72 2.2 N 13 17 7 9 1019.5 1020.7 0.0
16/11:30am 9.2 4.8 5.0 75 2.0 N 17 22 9 12 1019.9 1021.1 0.0
16/11:00am 8.4 4.0 4.8 78 1.7 N 17 20 9 11 1020.2 1021.4 0.0
16/10:30am 8.0 4.3 4.6 79 1.6 NNE 13 19 7 10 1020.2 1021.4 0.0
16/10:00am 6.4 1.5 3.9 84 1.1 N 19 28 10 15 1020.3 1021.5 0.0
16/09:30am 5.0 0.3 3.3 89 0.7 NNW 17 22 9 12 1020.2 1021.4 0.0
16/09:00am 4.4 -0.9 3.2 92 0.5 N 20 28 11 15 1019.9 1021.1 0.0
16/08:30am 2.8 -2.0 2.4 97 0.2 N 17 24 9 13 1019.7 1020.9 0.0
16/08:00am 2.6 -1.5 2.5 99 0.0 N 13 17 7 9 1019.7 1020.9 0.0
16/07:30am 1.8 -2.8 1.7 99 0.0 N 15 20 8 11 1019.4 1020.6 0.0
16/07:00am 1.7 -2.5 1.6 99 0.0 N 13 20 7 11 1019.2 1020.4 0.0
16/06:30am 2.7 -0.6 2.3 97 0.2 N 9 15 5 8 1019.5 1020.7 0.0
16/06:00am 2.8 -0.5 2.5 98 0.1 NNE 9 15 5 8 1019.2 1020.4 0.0
16/05:30am 3.0 -1.5 2.4 96 0.2 N 15 20 8 11 1018.9 1020.1 0.0
16/05:00am 3.4 -1.7 2.8 96 0.3 N 19 24 10 13 1018.8 1020.0 0.0
16/04:30am 3.9 -1.2 3.2 95 0.3 N 19 24 10 13 1018.8 1020.0 0.0
16/04:00am 3.8 -0.5 3.1 95 0.3 N 15 20 8 11 1019.2 1020.4 0.0
16/03:30am 4.0 -1.1 3.0 93 0.4 N 19 26 10 14 1019.3 1020.5 0.0
16/03:00am 3.9 -0.8 3.0 94 0.4 N 17 20 9 11 1019.1 1020.3 0.0
16/02:30am 4.0 -1.1 3.0 93 0.4 N 19 28 10 15 1019.1 1020.3 0.0
16/02:00am 3.6 -0.8 2.7 94 0.4 N 15 20 8 11 1019.5 1020.7 0.0
16/01:30am 4.2 -0.5 3.0 92 0.5 N 17 26 9 14 1019.7 1020.9 0.0
16/01:00am 4.3 -0.4 3.0 91 0.6 N 17 22 9 12 1019.8 1021.0 0.0
16/12:30am 4.2 -0.5 3.0 92 0.5 N 17 24 9 13 1019.9 1021.1 0.0
16/12:00am 4.4 0.0 2.9 90 0.6 N 15 24 8 13 1020.2 1021.4 0.0
 
Date/Time
EST
Temp
°C
App
Temp
°C
Dew
Point
°C
Rel
Hum
%
Delta-T
°C
Wind Press
QNH
hPa
Press
MSL
hPa
Rain since
9am
mm
Dir  Spd
km/h
Gust
km/h
Spd
kts
Gust
kts
15/11:30pm 3.9 -0.9 2.7 92 0.5 N 17 24 9 13 1020.2 1021.4 0.0
15/11:00pm 4.1 -0.3 2.8 91 0.5 N 15 24 8 13 1020.4 1021.6 0.0
15/10:30pm 4.4 0.8 2.8 89 0.7 NW 11 17 6 9 1020.7 1021.9 0.0
15/10:00pm 4.3 0.2 2.5 88 0.8 NNW 13 19 7 10 1020.7 1021.9 0.0
15/09:30pm 4.6 -0.6 2.6 87 0.8 N 19 26 10 14 1020.3 1021.5 0.0
15/09:00pm 4.6 -0.8 2.5 86 0.9 N 20 32 11 17 1020.3 1021.5 0.0
15/08:30pm 4.3 0.2 2.3 87 0.8 NNW 13 22 7 12 1020.4 1021.6 0.0
15/08:00pm 5.1 0.3 2.6 84 1.1 N 17 22 9 12 1020.2 1021.4 0.0
15/07:30pm 5.1 0.3 2.6 84 1.1 N 17 24 9 13 1020.2 1021.4 0.0
15/07:00pm 5.6 0.8 2.8 82 1.2 N 17 24 9 13 1019.9 1021.1 0.0
15/06:30pm 5.9 1.9 3.1 82 1.2 N 13 19 7 10 1019.5 1020.7 0.0
15/06:00pm 6.3 2.0 3.3 81 1.3 N 15 20 8 11 1019.2 1020.4 0.0
15/05:30pm 6.9 3.0 3.3 78 1.6 N 13 17 7 9 1018.9 1020.1 0.0
15/05:00pm 7.6 3.7 3.5 75 1.8 N 13 20 7 11 1018.6 1019.8 0.0
15/04:30pm 8.8 4.3 4.0 72 2.2 N 17 20 9 11 1018.3 1019.4 0.0
15/04:00pm 9.6 5.0 3.8 67 2.6 N 17 24 9 13 1018.1 1019.2 0.0
15/03:30pm 11.4 8.1 2.4 54 4.0 NNW 9 15 5 8 1017.9 1019.1 0.0
15/03:00pm 10.9 8.0 1.4 52 4.1 NNE 6 11 3 6 1017.9 1019.1 0.0
15/02:30pm 10.7 7.7 1.0 51 4.2 ENE 6 11 3 6 1018.1 1019.2 0.0
15/02:00pm 10.9 8.5 2.0 54 3.9 ENE 4 9 2 5 1018.1 1019.2 0.0
15/01:30pm 10.3 7.5 1.9 56 3.7 E 6 11 3 6 1018.2 1019.3 0.0
15/01:00pm 10.3 7.5 2.9 60 3.3 SE 7 13 4 7 1018.1 1019.2 0.0

Other formats

Comma delimited format used in spreadsheet applications
http://www.bom.gov.au/fwo/IDV60801/IDV60801.94908.axf

JavaScript Object Notation format (JSON) in row-major order
http://www.bom.gov.au/fwo/IDV60801/IDV60801.94908.json

Data quality

Most of these data are generated automatically and are frequently updated. Quality checks on data are not normally performed. It is possible for incorrect values to appear. Refer to information at About Latest Weather Observations and please check the disclaimer before using these data.